createdAt,value
2022-10-17T00:00:11.947Z,54.4
2022-10-17T00:01:11.952Z,54.4
2022-10-17T00:02:11.914Z,54.38
2022-10-17T00:03:11.916Z,54.38
2022-10-17T00:04:11.928Z,54.28
2022-10-17T00:05:11.923Z,54.43
2022-10-17T00:06:11.909Z,54.3
2022-10-17T00:07:11.904Z,54.39
2022-10-17T00:08:11.909Z,54.35
2022-10-17T00:09:11.921Z,54.38
2022-10-17T00:10:11.911Z,54.36
2022-10-17T00:11:11.905Z,54.34
2022-10-17T00:12:11.907Z,54.39
2022-10-17T00:13:11.920Z,54.4
2022-10-17T00:14:11.918Z,54.39
2022-10-17T00:15:11.904Z,54.4
2022-10-17T00:16:11.956Z,54.39
2022-10-17T00:17:11.901Z,54.45
2022-10-17T00:18:11.914Z,54.46
2022-10-17T00:19:11.910Z,54.35
2022-10-17T00:20:11.891Z,54.31
2022-10-17T00:21:11.898Z,54.36
2022-10-17T00:22:11.890Z,54.17
2022-10-17T00:23:11.894Z,54.35
2022-10-17T00:24:11.905Z,54.36
2022-10-17T00:25:11.889Z,54.43
2022-10-17T00:26:11.886Z,54.34
2022-10-17T00:27:11.893Z,54.38
2022-10-17T00:28:11.880Z,54.33
2022-10-17T00:29:11.896Z,54.3
2022-10-17T00:30:11.885Z,54.31
2022-10-17T00:31:11.886Z,54.29
2022-10-17T00:32:11.903Z,54.35
2022-10-17T00:33:11.897Z,54.4
2022-10-17T00:34:11.884Z,54.35
2022-10-17T00:35:11.874Z,54.37
2022-10-17T00:36:11.887Z,54.3
2022-10-17T00:37:11.878Z,54.4
2022-10-17T00:38:11.876Z,54.31
2022-10-17T00:39:11.864Z,54.44
2022-10-17T00:40:11.875Z,54.3
2022-10-17T00:41:11.903Z,54.43
2022-10-17T00:42:11.873Z,54.37
2022-10-17T00:43:11.867Z,54.38
2022-10-17T00:44:11.890Z,54.33
2022-10-17T00:45:11.867Z,54.36
2022-10-17T00:46:11.869Z,54.27
2022-10-17T00:47:11.871Z,54.33
2022-10-17T00:48:11.896Z,54.37
2022-10-17T00:49:11.880Z,54.38
2022-10-17T00:50:11.860Z,54.42
2022-10-17T00:51:11.863Z,54.42
2022-10-17T00:52:11.860Z,54.42
2022-10-17T00:53:11.853Z,54.5
2022-10-17T00:54:11.869Z,54.35
2022-10-17T00:55:11.855Z,54.36
2022-10-17T00:56:11.853Z,54.38
2022-10-17T00:57:11.850Z,54.5
2022-10-17T00:58:11.848Z,54.47
2022-10-17T00:59:11.876Z,54.37
2022-10-17T01:00:11.862Z,54.29
2022-10-17T01:01:11.934Z,54.37
2022-10-17T01:02:11.843Z,54.36
2022-10-17T01:03:11.866Z,54.36
2022-10-17T01:04:11.867Z,54.28
2022-10-17T01:05:11.844Z,54.39
2022-10-17T01:06:11.842Z,54.28
2022-10-17T01:07:11.842Z,54.33
2022-10-17T01:08:11.847Z,54.32
2022-10-17T01:09:11.833Z,54.35
2022-10-17T01:10:11.932Z,54.41
2022-10-17T01:11:11.831Z,54.43
2022-10-17T01:12:11.833Z,54.34
2022-10-17T01:13:11.830Z,54.45
2022-10-17T01:14:11.833Z,54.32
2022-10-17T01:15:11.837Z,54.39
2022-10-17T01:16:11.857Z,54.34
2022-10-17T01:17:11.829Z,54.36
2022-10-17T01:18:11.824Z,54.37
2022-10-17T01:19:11.853Z,54.42
2022-10-17T01:20:11.860Z,54.38
2022-10-17T01:21:11.828Z,54.45
2022-10-17T01:22:11.823Z,54.39
2022-10-17T01:23:11.829Z,54.49
2022-10-17T01:24:11.817Z,54.45
2022-10-17T01:25:11.830Z,54.33
2022-10-17T01:26:11.815Z,54.41
2022-10-17T01:27:11.817Z,54.49
2022-10-17T01:28:11.831Z,54.44
2022-10-17T01:29:11.812Z,54.48
2022-10-17T01:30:11.821Z,54.39
2022-10-17T01:31:11.821Z,54.39
2022-10-17T01:32:11.816Z,54.41
2022-10-17T01:33:11.841Z,54.42
2022-10-17T01:34:11.806Z,54.43
2022-10-17T01:35:11.810Z,54.45
2022-10-17T01:36:11.833Z,54.48
2022-10-17T01:37:11.807Z,54.42
2022-10-17T01:38:11.808Z,54.4
2022-10-17T01:39:11.816Z,54.45
2022-10-17T01:40:11.802Z,54.34
2022-10-17T01:41:11.793Z,54.41
2022-10-17T01:42:11.803Z,54.37
2022-10-17T01:43:11.804Z,54.38
2022-10-17T01:44:11.806Z,54.44
2022-10-17T01:45:11.798Z,54.47
2022-10-17T01:46:11.795Z,54.39
2022-10-17T01:47:11.795Z,54.43
2022-10-17T01:48:11.808Z,54.41
2022-10-17T01:49:11.810Z,54.49
2022-10-17T01:50:11.792Z,54.47
2022-10-17T01:51:11.786Z,54.52
2022-10-17T01:52:11.814Z,54.42
2022-10-17T01:53:11.789Z,54.4
2022-10-17T01:54:11.805Z,54.39
2022-10-17T01:55:11.795Z,54.39
2022-10-17T01:56:11.780Z,54.33
2022-10-17T01:57:11.782Z,54.5
2022-10-17T01:58:11.783Z,54.44
2022-10-17T01:59:11.795Z,54.4
2022-10-17T02:00:11.795Z,54.4
2022-10-17T02:01:11.825Z,54.44
2022-10-17T02:02:11.791Z,54.35
2022-10-17T02:03:11.777Z,54.36
2022-10-17T02:04:11.788Z,54.32
2022-10-17T02:05:11.783Z,54.36
2022-10-17T02:06:11.787Z,54.49
2022-10-17T02:07:11.766Z,54.41
2022-10-17T02:08:11.792Z,54.38
2022-10-17T02:09:11.769Z,54.49
2022-10-17T02:10:11.810Z,54.41
2022-10-17T02:11:11.776Z,54.51
2022-10-17T02:12:11.767Z,54.4
2022-10-17T02:13:11.765Z,54.39
2022-10-17T02:15:11.755Z,54.44
2022-10-17T02:16:11.806Z,54.44
2022-10-17T02:17:11.758Z,54.46
2022-10-17T02:18:11.772Z,54.44
2022-10-17T02:19:11.755Z,54.42
2022-10-17T02:20:11.759Z,54.46
2022-10-17T02:21:11.753Z,54.51
2022-10-17T02:22:11.757Z,54.46
2022-10-17T02:23:11.864Z,54.38
2022-10-17T02:24:11.776Z,54.4
2022-10-17T02:25:11.770Z,54.42
2022-10-17T02:26:11.749Z,54.37
2022-10-17T02:27:11.749Z,54.33
2022-10-17T02:28:11.746Z,54.36
2022-10-17T02:29:11.752Z,54.38
2022-10-17T02:30:11.773Z,54.44
2022-10-17T02:31:11.738Z,54.53
2022-10-17T02:32:11.879Z,54.41
2022-10-17T02:33:11.742Z,54.47
2022-10-17T02:34:11.745Z,54.44
2022-10-17T02:35:11.746Z,54.41
2022-10-17T02:36:11.749Z,54.41
2022-10-17T02:37:11.734Z,54.4
2022-10-17T02:38:11.736Z,54.45
2022-10-17T02:39:11.733Z,54.46
2022-10-17T02:40:11.761Z,54.3
2022-10-17T02:41:11.748Z,54.33
2022-10-17T02:42:11.722Z,54.27
2022-10-17T02:43:11.735Z,54.42
2022-10-17T02:44:11.727Z,54.35
2022-10-17T02:45:11.727Z,54.4
2022-10-17T02:46:11.750Z,54.44
2022-10-17T02:47:11.719Z,54.5
2022-10-17T02:48:11.725Z,54.35
2022-10-17T02:49:11.725Z,54.33
2022-10-17T02:50:11.716Z,54.39
2022-10-17T02:51:11.730Z,54.38
2022-10-17T02:52:11.720Z,54.38
2022-10-17T02:53:11.734Z,54.4
2022-10-17T02:54:11.726Z,54.36
2022-10-17T02:55:11.719Z,54.32
2022-10-17T02:56:11.738Z,54.33
2022-10-17T02:57:11.728Z,54.35
2022-10-17T02:58:11.714Z,54.44
2022-10-17T02:59:11.727Z,54.45
2022-10-17T03:00:11.711Z,54.39
2022-10-17T03:01:11.738Z,54.4
2022-10-17T03:02:11.704Z,54.37
2022-10-17T03:03:11.713Z,54.36
2022-10-17T03:04:11.702Z,54.1
2022-10-17T03:05:11.716Z,54.38
2022-10-17T03:06:11.701Z,54.32
2022-10-17T03:07:11.715Z,54.31
2022-10-17T03:08:11.701Z,54.35
2022-10-17T03:09:11.714Z,54.38
2022-10-17T03:10:11.710Z,54.33
2022-10-17T03:11:11.696Z,54.41
2022-10-17T03:12:11.719Z,54.38
2022-10-17T03:13:11.696Z,54.34
2022-10-17T03:14:11.691Z,54.31
2022-10-17T03:15:11.708Z,54.38
2022-10-17T03:16:11.722Z,54.24
2022-10-17T03:17:11.688Z,54.36
2022-10-17T03:18:11.686Z,54.27
2022-10-17T03:19:11.686Z,54.29
2022-10-17T03:20:11.703Z,54.22
2022-10-17T03:21:11.682Z,54.23
2022-10-17T03:22:11.693Z,54.27
2022-10-17T03:23:11.684Z,54.35
2022-10-17T03:24:11.681Z,54.26
2022-10-17T03:25:11.701Z,54.31
2022-10-17T03:26:11.684Z,54.33
2022-10-17T03:27:11.684Z,54.32
2022-10-17T03:28:11.697Z,54.33
2022-10-17T03:29:11.735Z,54.36
2022-10-17T03:30:11.676Z,54.35
2022-10-17T03:31:11.681Z,54.35
2022-10-17T03:32:11.678Z,54.35
2022-10-17T03:33:11.673Z,54.3
2022-10-17T03:34:11.668Z,54.29
2022-10-17T03:35:14.846Z,54.38
2022-10-17T03:36:11.670Z,54.29
2022-10-17T03:37:11.679Z,54.33
2022-10-17T03:38:11.681Z,54.29
2022-10-17T03:39:11.665Z,54.38
2022-10-17T03:40:11.671Z,54.39
2022-10-17T03:41:11.666Z,54.4
2022-10-17T03:42:11.659Z,54.33
2022-10-17T03:43:11.671Z,54.31
2022-10-17T03:44:11.674Z,54.15
2022-10-17T03:45:11.658Z,54.27
2022-10-17T03:46:11.686Z,54.04
2022-10-17T03:47:14.082Z,54.08
2022-10-17T03:48:11.686Z,54.09
2022-10-17T03:49:11.651Z,54.23
2022-10-17T03:50:11.653Z,53.93
2022-10-17T03:51:11.659Z,53.78
2022-10-17T03:52:11.652Z,53.71
2022-10-17T03:53:11.651Z,53.78
2022-10-17T03:54:11.674Z,54.1
2022-10-17T03:55:11.645Z,54.16
2022-10-17T03:56:11.646Z,54.1
2022-10-17T03:57:11.647Z,54.17
2022-10-17T03:58:11.646Z,54.18
2022-10-17T03:59:11.655Z,54.06
2022-10-17T04:00:11.666Z,54.06
2022-10-17T04:01:11.699Z,54.17
2022-10-17T04:02:11.634Z,53.98
2022-10-17T04:03:16.354Z,54.11
2022-10-17T04:04:11.651Z,54.1
2022-10-17T04:05:12.623Z,54.07
2022-10-17T04:06:11.637Z,53.82
2022-10-17T04:07:11.639Z,53.82
2022-10-17T04:08:11.626Z,53.76
2022-10-17T04:09:11.653Z,54
2022-10-17T04:10:11.638Z,53.89
2022-10-17T04:11:11.626Z,54.06
2022-10-17T04:12:11.631Z,54.04
2022-10-17T04:13:11.642Z,53.96
2022-10-17T04:14:11.624Z,53.84
2022-10-17T04:15:11.622Z,53.99
2022-10-17T04:16:11.677Z,54.01
2022-10-17T04:17:11.632Z,53.99
2022-10-17T04:18:11.618Z,54.09
2022-10-17T04:19:11.630Z,54.09
2022-10-17T04:20:11.649Z,53.83
2022-10-17T04:21:11.608Z,53.79
2022-10-17T04:22:11.613Z,54.11
2022-10-17T04:23:11.610Z,54.04
2022-10-17T04:24:11.616Z,54.1
2022-10-17T04:25:11.619Z,53.98
2022-10-17T04:26:11.606Z,53.84
2022-10-17T04:27:11.611Z,53.96
2022-10-17T04:28:11.604Z,53.67
2022-10-17T04:29:11.616Z,53.66
2022-10-17T04:30:11.614Z,53.61
2022-10-17T04:31:11.603Z,53.54
2022-10-17T04:32:11.638Z,53.62
2022-10-17T04:33:11.605Z,53.52
2022-10-17T04:34:11.614Z,53.67
2022-10-17T04:35:11.596Z,53.72
2022-10-17T04:36:11.598Z,53.77
2022-10-17T04:37:11.595Z,54.14
2022-10-17T04:38:11.595Z,54.06
2022-10-17T04:39:11.613Z,53.89
2022-10-17T04:40:11.596Z,53.71
2022-10-17T04:41:11.595Z,54
2022-10-17T04:42:11.594Z,53.94
2022-10-17T04:43:11.585Z,54.07
2022-10-17T04:44:11.603Z,54.04
2022-10-17T04:45:11.590Z,53.5
2022-10-17T04:46:11.604Z,53.94
2022-10-17T04:47:11.591Z,54.05
2022-10-17T04:48:11.606Z,53.78
2022-10-17T04:49:11.578Z,53.66
2022-10-17T04:50:11.595Z,53.87
2022-10-17T04:51:11.591Z,54.12
2022-10-17T04:52:11.596Z,53.98
2022-10-17T04:53:11.576Z,53.71
2022-10-17T04:54:11.580Z,53.75
2022-10-17T04:55:11.574Z,53.99
2022-10-17T04:56:11.574Z,53.95
2022-10-17T04:57:11.582Z,53.9
2022-10-17T04:58:11.575Z,54.05
2022-10-17T04:59:11.572Z,54.29
2022-10-17T05:00:11.635Z,53.84
2022-10-17T05:01:11.699Z,53.87
2022-10-17T05:02:11.575Z,53.69
2022-10-17T05:03:11.561Z,53.64
2022-10-17T05:04:11.605Z,53.88
2022-10-17T05:05:11.563Z,53.87
2022-10-17T05:06:11.575Z,53.67
2022-10-17T05:07:11.564Z,53.71
2022-10-17T05:08:11.564Z,53.67
2022-10-17T05:09:11.563Z,53.91
2022-10-17T05:10:11.558Z,54.09
2022-10-17T05:11:11.571Z,54.05
2022-10-17T05:12:11.574Z,53.68
2022-10-17T05:13:11.568Z,53.78
2022-10-17T05:14:11.564Z,53.43
2022-10-17T05:15:11.553Z,53.79
2022-10-17T05:16:11.590Z,54.04
2022-10-17T05:17:11.581Z,54
2022-10-17T05:18:11.551Z,54.01
2022-10-17T05:19:11.550Z,53.94
2022-10-17T05:20:11.569Z,53.8
2022-10-17T05:21:11.542Z,54.04
2022-10-17T05:22:11.561Z,54.31
2022-10-17T05:23:11.562Z,54.05
2022-10-17T05:24:12.737Z,54.05
2022-10-17T05:25:11.563Z,54.06
2022-10-17T05:26:11.539Z,54.06
2022-10-17T05:27:11.538Z,53.95
2022-10-17T05:28:11.537Z,53.79
2022-10-17T05:29:11.552Z,54.15
2022-10-17T05:30:11.537Z,54.06
2022-10-17T05:31:11.553Z,54.41
2022-10-17T05:32:11.532Z,54.36
2022-10-17T05:33:11.531Z,54.03
2022-10-17T05:34:13.843Z,54.21
2022-10-17T05:35:11.531Z,54.15
2022-10-17T05:36:11.572Z,54.08
2022-10-17T05:37:11.523Z,54.37
2022-10-17T05:38:11.542Z,54.35
2022-10-17T05:39:11.522Z,54.13
2022-10-17T05:40:11.544Z,54.37
2022-10-17T05:41:11.520Z,54.33
2022-10-17T05:42:11.531Z,54.28
2022-10-17T05:43:11.515Z,54.04
2022-10-17T05:44:11.526Z,53.79
2022-10-17T05:45:11.543Z,54.17
2022-10-17T05:46:11.691Z,54.29
2022-10-17T05:47:11.524Z,54.28
2022-10-17T05:48:11.511Z,54.45
2022-10-17T05:49:25.209Z,54.16
2022-10-17T05:50:11.517Z,54.02
2022-10-17T05:51:11.521Z,54.32
2022-10-17T05:52:11.552Z,54.19
2022-10-17T05:53:11.528Z,54.05
2022-10-17T05:54:11.510Z,53.79
2022-10-17T05:55:11.547Z,54.08
2022-10-17T05:56:11.501Z,53.99
2022-10-17T05:57:11.504Z,54.4
2022-10-17T05:58:17.768Z,54.34
2022-10-17T05:59:11.508Z,54.13
2022-10-17T06:00:11.514Z,53.73
2022-10-17T06:01:12.864Z,53.83
2022-10-17T06:02:11.597Z,53.69
2022-10-17T06:03:11.512Z,53.55
2022-10-17T06:04:11.567Z,53.79
2022-10-17T06:05:11.527Z,54.19
2022-10-17T06:06:11.496Z,54.27
2022-10-17T06:07:11.495Z,54.21
2022-10-17T06:08:11.526Z,53.29
2022-10-17T06:09:11.526Z,53.73
2022-10-17T06:10:11.547Z,53.44
2022-10-17T06:11:11.484Z,53.89
2022-10-17T06:12:11.553Z,53.64
2022-10-17T06:13:11.481Z,53.65
2022-10-17T06:14:11.487Z,53.48
2022-10-17T06:15:11.488Z,53.04
2022-10-17T06:16:11.512Z,52.39
2022-10-17T06:17:15.737Z,53.04
2022-10-17T06:18:11.492Z,52.75
2022-10-17T06:19:11.486Z,52.74
2022-10-17T06:20:11.479Z,52.93
2022-10-17T06:21:11.488Z,53.45
2022-10-17T06:22:11.467Z,53.54
2022-10-17T06:23:11.492Z,53.32
2022-10-17T06:24:11.502Z,53.06
2022-10-17T06:25:11.470Z,53.36
2022-10-17T06:26:11.469Z,53.06
2022-10-17T06:27:12.286Z,52.59
2022-10-17T06:28:11.494Z,52.58
2022-10-17T06:29:11.585Z,53.13
2022-10-17T06:30:11.486Z,52.81
2022-10-17T06:31:11.497Z,52.3
2022-10-17T06:32:14.954Z,52.34
2022-10-17T06:33:11.500Z,52.43
2022-10-17T06:34:11.464Z,52.64
2022-10-17T06:35:11.456Z,52.48
2022-10-17T06:36:11.463Z,52.71
2022-10-17T06:37:11.462Z,52.3
2022-10-17T06:38:11.483Z,52.02
2022-10-17T06:39:11.460Z,52.41
2022-10-17T06:40:11.479Z,52.71
2022-10-17T06:41:11.467Z,52.85
2022-10-17T06:42:11.453Z,52.44
2022-10-17T06:43:11.451Z,52.47
2022-10-17T06:44:11.499Z,52.93
2022-10-17T06:45:11.478Z,52.83
2022-10-17T06:46:11.451Z,52.94
2022-10-17T06:47:13.440Z,52.62
2022-10-17T06:48:11.451Z,53.17
2022-10-17T06:49:11.439Z,53.06
2022-10-17T06:50:11.453Z,52.76
2022-10-17T06:51:11.447Z,52.62
2022-10-17T06:52:11.445Z,53.03
2022-10-17T06:53:11.443Z,52.84
2022-10-17T06:54:11.461Z,52.8
2022-10-17T06:55:11.453Z,53.41
2022-10-17T06:56:11.464Z,53.15
2022-10-17T06:57:11.430Z,52.79
2022-10-17T06:58:11.437Z,52.83
2022-10-17T06:59:11.433Z,53.15
2022-10-17T07:00:11.468Z,52.78
2022-10-17T07:01:11.690Z,52.61
2022-10-17T07:02:11.430Z,52.81
2022-10-17T07:03:11.427Z,52.84
2022-10-17T07:04:11.472Z,52.95
2022-10-17T07:05:11.431Z,53.09
2022-10-17T07:06:11.426Z,53.07
2022-10-17T07:07:11.447Z,53.12
2022-10-17T07:08:11.433Z,53.6
2022-10-17T07:09:11.420Z,53.06
2022-10-17T07:10:11.437Z,52.55
2022-10-17T07:11:11.413Z,52.74
2022-10-17T07:12:11.646Z,52.83
2022-10-17T07:13:11.474Z,53.31
2022-10-17T07:14:11.433Z,53.18
2022-10-17T07:15:11.418Z,52.56
2022-10-17T07:16:11.472Z,52.69
2022-10-17T07:17:11.420Z,52.79
2022-10-17T07:18:11.453Z,52.89
2022-10-17T07:19:11.410Z,53.25
2022-10-17T07:20:11.467Z,53.09
2022-10-17T07:21:11.407Z,52.96
2022-10-17T07:22:11.399Z,53.25
2022-10-17T07:23:11.484Z,53.16
2022-10-17T07:24:11.420Z,53
2022-10-17T07:25:12.567Z,52.89
2022-10-17T07:26:11.410Z,53.15
2022-10-17T07:27:11.401Z,53.32
2022-10-17T07:28:11.438Z,53.24
2022-10-17T07:29:11.403Z,53.13
2022-10-17T07:30:11.394Z,53.29
2022-10-17T07:31:11.411Z,53.57
2022-10-17T07:32:11.392Z,53.44
2022-10-17T07:33:11.411Z,53.38
2022-10-17T07:34:11.395Z,53.43
2022-10-17T07:35:11.398Z,53.38
2022-10-17T07:36:11.393Z,53.31
2022-10-17T07:37:11.382Z,53.1
2022-10-17T07:38:11.384Z,53.15
2022-10-17T07:39:11.390Z,53.22
2022-10-17T07:40:11.401Z,53.27
2022-10-17T07:41:11.386Z,53.36
2022-10-17T07:42:11.383Z,53.03
2022-10-17T07:43:11.403Z,53.23
2022-10-17T07:44:11.405Z,52.8
2022-10-17T07:45:11.394Z,53.13
2022-10-17T07:46:11.380Z,52.58
2022-10-17T07:47:11.392Z,52.88
2022-10-17T07:48:11.382Z,53.03
2022-10-17T07:49:11.373Z,53.19
2022-10-17T07:50:11.382Z,52.67
2022-10-17T07:51:11.396Z,53.21
2022-10-17T07:52:11.372Z,53.09
2022-10-17T07:53:11.396Z,53.15
2022-10-17T07:54:11.370Z,52.84
2022-10-17T07:55:11.366Z,52.82
2022-10-17T07:56:11.387Z,53.41
2022-10-17T07:57:11.367Z,53.09
2022-10-17T07:58:11.379Z,53.25
2022-10-17T07:59:11.361Z,52.94
2022-10-17T08:00:11.389Z,52.74
2022-10-17T08:01:14.882Z,53.2
2022-10-17T08:02:11.379Z,52.82
2022-10-17T08:03:11.367Z,53.3
2022-10-17T08:04:11.356Z,52.97
2022-10-17T08:05:11.648Z,53.14
2022-10-17T08:06:11.361Z,53.28
2022-10-17T08:07:20.610Z,52.85
2022-10-17T08:08:11.379Z,52.93
2022-10-17T08:09:11.355Z,53
2022-10-17T08:10:11.369Z,52.8
2022-10-17T08:11:11.348Z,52.85
2022-10-17T08:12:11.344Z,52.91
2022-10-17T08:13:11.360Z,53.18
2022-10-17T08:14:11.349Z,53.01
2022-10-17T08:15:11.342Z,52.99
2022-10-17T08:16:11.393Z,52.77
2022-10-17T08:17:11.350Z,52.81
2022-10-17T08:18:11.372Z,52.85
2022-10-17T08:19:11.347Z,52.81
2022-10-17T08:20:11.340Z,53.08
2022-10-17T08:21:11.334Z,53.38
2022-10-17T08:22:11.358Z,53.43
2022-10-17T08:23:11.334Z,52.68
2022-10-17T08:24:11.333Z,53.3
2022-10-17T08:25:11.345Z,53.39
2022-10-17T08:26:11.343Z,53.4
2022-10-17T08:27:11.649Z,53.18
2022-10-17T08:28:11.333Z,53.22
2022-10-17T08:29:11.441Z,53.22
2022-10-17T08:30:11.332Z,53.41
2022-10-17T08:31:11.323Z,53.23
2022-10-17T08:32:11.354Z,53.54
2022-10-17T08:33:11.329Z,54.11
2022-10-17T08:34:11.330Z,53.33
2022-10-17T08:35:11.328Z,53.57
2022-10-17T08:36:11.321Z,53.55
2022-10-17T08:38:13.338Z,53.14
2022-10-17T08:39:11.354Z,53.19
2022-10-17T08:40:11.316Z,53.36
2022-10-17T08:41:11.313Z,53.2
2022-10-17T08:42:11.307Z,53.27
2022-10-17T08:43:11.305Z,53.9
2022-10-17T08:44:11.340Z,53.39
2022-10-17T08:45:11.312Z,53.62
2022-10-17T08:46:11.380Z,53.84
2022-10-17T08:47:11.302Z,53.9
2022-10-17T08:48:11.339Z,53.68
2022-10-17T08:49:12.163Z,53.73
2022-10-17T08:50:11.314Z,54.03
2022-10-17T08:51:11.310Z,53.73
2022-10-17T08:52:11.302Z,53.33
2022-10-17T08:53:11.307Z,53.21
2022-10-17T08:54:11.319Z,53.19
2022-10-17T08:55:11.362Z,53.14
2022-10-17T08:56:19.517Z,52.99
2022-10-17T08:57:11.326Z,53.79
2022-10-17T08:58:11.302Z,53.46
2022-10-17T08:59:11.290Z,53.45
2022-10-17T09:00:11.285Z,53.66
2022-10-17T09:01:13.257Z,54
2022-10-17T09:02:11.294Z,53.85
2022-10-17T09:03:11.335Z,53.13
2022-10-17T09:04:11.364Z,53.83
2022-10-17T09:05:11.286Z,53.86
2022-10-17T09:06:11.288Z,53.6
2022-10-17T09:07:11.293Z,53.91
2022-10-17T09:08:11.286Z,53.04
2022-10-17T09:09:11.291Z,53.17
2022-10-17T09:10:11.295Z,52.5
2022-10-17T09:11:11.280Z,54.12
2022-10-17T09:12:11.271Z,54.49
2022-10-17T09:13:11.267Z,53.89
2022-10-17T09:14:11.287Z,53.26
2022-10-17T09:15:11.270Z,54.73
2022-10-17T09:16:11.298Z,55.39
2022-10-17T09:17:11.270Z,55.67
2022-10-17T09:18:11.301Z,55.48
2022-10-17T09:19:11.272Z,55.27
2022-10-17T09:20:11.320Z,54.31
2022-10-17T09:21:11.265Z,55.38
2022-10-17T09:22:11.263Z,55.69
2022-10-17T09:23:11.292Z,54.86
2022-10-17T09:24:15.809Z,54.29
2022-10-17T09:25:11.262Z,54.18
2022-10-17T09:26:11.258Z,54.07
2022-10-17T09:27:11.259Z,54.77
2022-10-17T09:28:11.258Z,53.92
2022-10-17T09:29:11.274Z,53.03
2022-10-17T09:30:21.277Z,53.35
2022-10-17T09:31:11.271Z,53.09
2022-10-17T09:32:11.254Z,53.21
2022-10-17T09:33:23.055Z,52.42
2022-10-17T09:34:11.254Z,52.71
2022-10-17T09:35:11.248Z,53.34
2022-10-17T09:36:11.312Z,52.78
2022-10-17T09:37:11.248Z,52.8
2022-10-17T09:38:11.268Z,52.68
2022-10-17T09:39:11.247Z,53.79
2022-10-17T09:40:11.259Z,53.15
2022-10-17T09:41:32.104Z,52.78
2022-10-17T09:42:11.238Z,52.22
2022-10-17T09:43:11.257Z,52.88
2022-10-17T09:44:11.255Z,52.15
2022-10-17T09:45:11.241Z,52.98
2022-10-17T09:46:11.239Z,53.33
2022-10-17T09:47:11.237Z,53.16
2022-10-17T09:48:11.250Z,53.03
2022-10-17T09:49:13.494Z,53.46
2022-10-17T09:50:11.237Z,52.8
2022-10-17T09:51:21.780Z,52.65
2022-10-17T09:52:11.252Z,52.95
2022-10-17T09:53:11.231Z,52.83
2022-10-17T09:54:11.222Z,52.33
2022-10-17T09:55:11.226Z,52.91
2022-10-17T09:56:11.246Z,53.45
2022-10-17T09:57:11.217Z,54.89
2022-10-17T09:58:11.223Z,55.9
2022-10-17T09:59:13.796Z,56.32
2022-10-17T10:00:11.280Z,55.37
2022-10-17T10:01:11.321Z,55.2
2022-10-17T10:02:11.233Z,55.58
2022-10-17T10:03:11.253Z,55.89
2022-10-17T10:04:11.211Z,55.78
2022-10-17T10:05:11.217Z,54.02
2022-10-17T10:06:11.218Z,53.85
2022-10-17T10:07:11.222Z,54.02
2022-10-17T10:08:11.263Z,54.81
2022-10-17T10:09:11.267Z,56.22
2022-10-17T10:10:11.211Z,55.06
2022-10-17T10:11:13.861Z,55.84
2022-10-17T10:12:11.202Z,55.17
2022-10-17T10:13:11.205Z,55.16
2022-10-17T10:14:11.203Z,54.57
2022-10-17T10:15:11.224Z,54.42
2022-10-17T10:16:11.237Z,54.57
2022-10-17T10:17:11.230Z,53.72
2022-10-17T10:18:11.211Z,53.67
2022-10-17T10:19:11.205Z,54.01
2022-10-17T10:20:11.196Z,53.78
2022-10-17T10:21:11.202Z,53.88
2022-10-17T10:22:11.233Z,54.04
2022-10-17T10:23:11.197Z,53.98
2022-10-17T10:24:11.219Z,54.33
2022-10-17T10:25:11.201Z,54.23
2022-10-17T10:26:12.433Z,54.63
2022-10-17T10:27:11.251Z,53.89
2022-10-17T10:28:11.198Z,54.37
2022-10-17T10:29:11.356Z,54.24
2022-10-17T10:30:11.188Z,54.27
2022-10-17T10:31:11.179Z,53.86
2022-10-17T10:32:11.205Z,53.78
2022-10-17T10:33:11.193Z,54.02
2022-10-17T10:34:11.187Z,54.22
2022-10-17T10:35:11.230Z,54.49
2022-10-17T10:36:11.176Z,54.11
2022-10-17T10:37:13.465Z,53.95
2022-10-17T10:38:11.171Z,53.94
2022-10-17T10:39:11.212Z,53.98
2022-10-17T10:40:11.221Z,53.9
2022-10-17T10:41:11.195Z,54.7
2022-10-17T10:42:11.180Z,54.63
2022-10-17T10:43:11.182Z,54.02
2022-10-17T10:44:11.171Z,53.72
2022-10-17T10:45:19.106Z,53.31
2022-10-17T10:46:11.164Z,53.96
2022-10-17T10:47:11.167Z,53.94
2022-10-17T10:48:11.192Z,53.83
2022-10-17T10:49:11.172Z,53.65
2022-10-17T10:50:11.181Z,53.59
2022-10-17T10:51:11.176Z,53.81
2022-10-17T10:52:11.162Z,55.16
2022-10-17T10:53:11.174Z,55.03
2022-10-17T10:54:11.186Z,55.97
2022-10-17T10:55:11.154Z,55.74
2022-10-17T10:56:11.187Z,55.82
2022-10-17T10:57:11.151Z,55.86
2022-10-17T10:58:11.172Z,55.89
2022-10-17T10:59:11.162Z,55.06
2022-10-17T11:00:11.144Z,55.36
2022-10-17T11:01:11.249Z,54.29
2022-10-17T11:02:11.150Z,54.29
2022-10-17T11:03:12.807Z,54.13
2022-10-17T11:04:11.170Z,54.37
2022-10-17T11:05:11.160Z,54.21
2022-10-17T11:06:11.149Z,54.71
2022-10-17T11:07:11.151Z,54.19
2022-10-17T11:08:11.167Z,53.77
2022-10-17T11:09:11.151Z,54.23
2022-10-17T11:10:11.138Z,54
2022-10-17T11:11:11.149Z,53.67
2022-10-17T11:12:11.164Z,53.26
2022-10-17T11:13:11.135Z,52.13
2022-10-17T11:14:13.121Z,52.1
2022-10-17T11:15:11.131Z,51.8
2022-10-17T11:16:11.162Z,51.66
2022-10-17T11:17:11.155Z,51.49
2022-10-17T11:18:11.124Z,51.41
2022-10-17T11:19:11.132Z,51.3
2022-10-17T11:20:11.134Z,51.24
2022-10-17T11:21:11.185Z,51.13
2022-10-17T11:22:11.125Z,51.7
2022-10-17T11:23:11.121Z,51.74
2022-10-17T11:24:11.151Z,51.25
2022-10-17T11:25:11.133Z,51.84
2022-10-17T11:26:11.124Z,51.69
2022-10-17T11:27:11.138Z,51.44
2022-10-17T11:28:11.160Z,51.58
2022-10-17T11:29:11.198Z,50.96
2022-10-17T11:30:11.145Z,51.26
2022-10-17T11:31:11.118Z,51.11
2022-10-17T11:32:11.133Z,51.1
2022-10-17T11:33:11.140Z,50.66
2022-10-17T11:34:11.112Z,50.93
2022-10-17T11:35:11.111Z,51.46
2022-10-17T11:36:11.113Z,52.02
2022-10-17T11:37:11.139Z,51.66
2022-10-17T11:38:11.121Z,51.44
2022-10-17T11:39:11.107Z,51.84
2022-10-17T11:40:11.123Z,51.11
2022-10-17T11:41:11.127Z,51.08
2022-10-17T11:42:11.096Z,51.39
2022-10-17T11:43:11.115Z,51.11
2022-10-17T11:44:11.122Z,50.97
2022-10-17T11:45:11.100Z,50.88
2022-10-17T11:46:11.110Z,50.11
2022-10-17T11:47:11.102Z,50.98
2022-10-17T11:48:11.095Z,51.13
2022-10-17T11:49:12.386Z,51.01
2022-10-17T11:52:11.125Z,50.35
2022-10-17T11:53:11.090Z,50.91
2022-10-17T11:54:11.104Z,51.06
2022-10-17T11:55:11.090Z,51.98
2022-10-17T11:56:11.108Z,51.77
2022-10-17T11:57:14.073Z,51.22
2022-10-17T11:58:11.094Z,51.29
2022-10-17T11:59:11.112Z,51.27
2022-10-17T12:00:11.108Z,51.05
2022-10-17T12:01:11.095Z,51.1
2022-10-17T12:02:11.074Z,51.74
2022-10-17T12:03:11.077Z,51.37
2022-10-17T12:04:11.170Z,52.69
2022-10-17T12:05:11.078Z,52.61
2022-10-17T12:06:11.083Z,52.34
2022-10-17T12:07:11.074Z,52.9
2022-10-17T12:08:11.074Z,52.06
2022-10-17T12:09:11.109Z,51.94
2022-10-17T12:10:11.073Z,52.09
2022-10-17T12:11:11.076Z,51.63
2022-10-17T12:12:11.088Z,51.85
2022-10-17T12:13:11.073Z,52.94
2022-10-17T12:14:11.070Z,53.16
2022-10-17T12:15:11.080Z,53.84
2022-10-17T12:16:15.827Z,53.72
2022-10-17T12:17:11.064Z,53.91
2022-10-17T12:18:11.055Z,54.16
2022-10-17T12:19:11.080Z,53.57
2022-10-17T12:20:11.065Z,53.39
2022-10-17T12:21:11.060Z,53.1
2022-10-17T12:22:11.062Z,52.49
2022-10-17T12:23:11.051Z,52.52
2022-10-17T12:24:13.465Z,52.34
2022-10-17T12:25:11.084Z,52.65
2022-10-17T12:26:11.048Z,53.05
2022-10-17T12:27:11.045Z,53.01
2022-10-17T12:28:11.049Z,52.38
2022-10-17T12:29:11.054Z,51.56
2022-10-17T12:30:11.059Z,51.31
2022-10-17T12:31:11.064Z,51.26
2022-10-17T12:32:11.074Z,51.49
2022-10-17T12:33:11.041Z,51.77
2022-10-17T12:34:11.054Z,52.19
2022-10-17T12:35:11.068Z,52.11
2022-10-17T12:36:11.052Z,52.13
2022-10-17T12:37:11.035Z,51.82
2022-10-17T12:38:11.084Z,51.91
2022-10-17T12:39:11.048Z,52.11
2022-10-17T12:40:11.053Z,52.31
2022-10-17T12:41:11.544Z,52.23
2022-10-17T12:42:11.031Z,52.01
2022-10-17T12:43:11.031Z,51
2022-10-17T12:44:11.031Z,51.38
2022-10-17T12:45:11.027Z,50.95
2022-10-17T12:46:11.044Z,50.81
2022-10-17T12:47:11.053Z,50.42
2022-10-17T12:48:11.080Z,50.96
2022-10-17T12:49:11.025Z,51.43
2022-10-17T12:50:11.026Z,51.42
2022-10-17T12:52:11.027Z,52.42
2022-10-17T12:53:14.343Z,51.84
2022-10-17T12:54:11.022Z,51.47
2022-10-17T12:55:12.795Z,52.05
2022-10-17T12:56:11.061Z,52.46
2022-10-17T12:57:11.061Z,52.57
2022-10-17T12:58:11.029Z,53.26
2022-10-17T12:59:11.006Z,53.66
2022-10-17T13:00:11.023Z,54.24